createdAt,value
2022-10-03T00:00:21.898Z,86.26
2022-10-03T00:01:38.903Z,86.06
2022-10-03T00:02:36.781Z,86.48
2022-10-03T00:03:33.736Z,86.10
2022-10-03T00:04:41.937Z,86.48
2022-10-03T00:05:35.704Z,86.08
2022-10-03T00:06:14.188Z,85.89
2022-10-03T00:07:11.125Z,86.18
2022-10-03T00:07:55.400Z,86.38
2022-10-03T00:08:41.507Z,86.85
2022-10-03T00:09:20.991Z,86.34
2022-10-03T00:09:56.310Z,86.90
2022-10-03T00:10:38.582Z,86.54
2022-10-03T00:12:00.896Z,86.74
2022-10-03T00:12:50.845Z,86.13
2022-10-03T00:13:25.455Z,86.39
2022-10-03T00:14:10.799Z,86.33
2022-10-03T00:15:21.928Z,86.90
2022-10-03T00:15:54.048Z,87.10
2022-10-03T00:16:46.633Z,86.91
2022-10-03T00:17:38.194Z,86.63
2022-10-03T00:18:19.059Z,86.64
2022-10-03T00:19:08.423Z,86.70
2022-10-03T00:20:05.951Z,86.17
2022-10-03T00:21:07.266Z,86.65
2022-10-03T00:21:49.347Z,86.40
2022-10-03T00:22:39.041Z,86.26
2022-10-03T00:23:18.367Z,86.81
2022-10-03T00:23:58.311Z,86.73
2022-10-03T00:24:48.214Z,86.85
2022-10-03T00:25:44.568Z,86.67
2022-10-03T00:26:36.742Z,86.61
2022-10-03T00:27:16.537Z,86.64
2022-10-03T00:28:07.180Z,87.00
2022-10-03T00:28:44.216Z,86.82
2022-10-03T00:29:22.793Z,86.66
2022-10-03T00:29:56.891Z,86.72
2022-10-03T00:30:43.772Z,86.85
2022-10-03T00:31:21.080Z,86.88
2022-10-03T00:32:11.263Z,86.70
2022-10-03T00:32:58.665Z,86.72
2022-10-03T00:34:02.307Z,86.67
2022-10-03T00:34:42.193Z,86.72
2022-10-03T00:35:41.185Z,87.15
2022-10-03T00:36:27.229Z,86.81
2022-10-03T00:37:17.313Z,87.16
2022-10-03T00:38:17.088Z,86.74
2022-10-03T00:39:18.212Z,87.13
2022-10-03T00:40:11.737Z,86.99
2022-10-03T00:41:15.457Z,86.88
2022-10-03T00:41:55.614Z,86.92
2022-10-03T00:42:48.697Z,87.03
2022-10-03T00:43:51.252Z,86.62
2022-10-03T00:44:58.576Z,86.51
2022-10-03T00:45:49.637Z,86.33
2022-10-03T00:46:49.719Z,85.99
2022-10-03T00:47:29.484Z,86.35
2022-10-03T00:48:38.007Z,86.33
2022-10-03T00:49:46.363Z,86.39
2022-10-03T00:50:46.040Z,86.16
2022-10-03T00:51:17.292Z,86.59
2022-10-03T00:51:57.382Z,87.13
2022-10-03T00:52:47.060Z,86.43
2022-10-03T00:53:30.172Z,86.45
2022-10-03T00:54:04.204Z,87.08
2022-10-03T00:54:52.626Z,87.03
2022-10-03T00:55:50.819Z,87.22
2022-10-03T00:56:49.684Z,86.39
2022-10-03T00:58:00.635Z,86.60
2022-10-03T00:58:43.321Z,86.94
2022-10-03T00:59:30.736Z,86.68
2022-10-03T01:00:14.059Z,86.82
2022-10-03T01:00:51.255Z,86.83
2022-10-03T01:01:32.656Z,87.45
2022-10-03T01:02:42.652Z,87.61
2022-10-03T01:03:46.574Z,86.74
2022-10-03T01:04:44.268Z,87.17
2022-10-03T01:05:49.499Z,86.60
2022-10-03T01:06:36.291Z,87.25
2022-10-03T01:07:28.753Z,87.08
2022-10-03T01:08:33.990Z,86.80
2022-10-03T01:09:37.082Z,86.78
2022-10-03T01:10:17.027Z,87.24
2022-10-03T01:11:21.326Z,87.57
2022-10-03T01:12:11.643Z,87.63
2022-10-03T01:12:58.077Z,87.61
2022-10-03T01:13:56.420Z,87.35
2022-10-03T01:14:40.984Z,87.28
2022-10-03T01:15:18.321Z,87.46
2022-10-03T01:15:52.450Z,87.91
2022-10-03T01:16:29.562Z,87.24
2022-10-03T01:17:39.665Z,87.40
2022-10-03T01:18:22.184Z,87.32
2022-10-03T01:19:11.685Z,86.98
2022-10-03T01:20:22.342Z,87.29
2022-10-03T01:21:27.204Z,87.58
2022-10-03T01:22:28.950Z,87.18
2022-10-03T01:23:18.824Z,87.47
2022-10-03T01:24:11.469Z,87.14
2022-10-03T01:24:48.519Z,87.15
2022-10-03T01:25:37.902Z,87.22
2022-10-03T01:26:49.138Z,86.92
2022-10-03T01:27:57.324Z,87.23
2022-10-03T01:29:02.264Z,87.21
2022-10-03T01:30:14.467Z,87.29
2022-10-03T01:30:55.590Z,88.55
2022-10-03T01:31:47.139Z,87.83
2022-10-03T01:32:45.166Z,87.93
2022-10-03T01:33:27.727Z,88.14
2022-10-03T01:34:13.040Z,88.47
2022-10-03T01:34:47.769Z,88.55
2022-10-03T01:35:47.338Z,88.29
2022-10-03T01:36:41.909Z,87.75
2022-10-03T01:37:47.505Z,87.57
2022-10-03T01:38:34.543Z,87.52
2022-10-03T01:39:15.494Z,88.27
2022-10-03T01:40:22.684Z,87.88
2022-10-03T01:41:29.056Z,87.60
2022-10-03T01:42:42.063Z,88.08
2022-10-03T01:43:20.088Z,88.45
2022-10-03T01:44:02.141Z,87.61
2022-10-03T01:44:52.776Z,88.33
2022-10-03T01:45:29.557Z,87.83
2022-10-03T01:46:21.993Z,88.19
2022-10-03T01:47:23.312Z,88.13
2022-10-03T01:48:04.561Z,88.14
2022-10-03T01:49:00.972Z,88.55
2022-10-03T01:49:45.779Z,88.07
2022-10-03T01:50:29.889Z,87.82
2022-10-03T01:51:11.314Z,87.52
2022-10-03T01:51:45.563Z,87.37
2022-10-03T01:52:48.148Z,87.68
2022-10-03T01:53:45.322Z,87.81
2022-10-03T01:54:35.640Z,87.38
2022-10-03T01:55:45.886Z,87.79
2022-10-03T01:56:54.956Z,87.92
2022-10-03T01:57:38.798Z,87.68
2022-10-03T01:58:23.836Z,87.74
2022-10-03T01:59:02.464Z,87.67
2022-10-03T01:59:59.796Z,87.79
2022-10-03T02:00:42.910Z,87.47
2022-10-03T02:01:26.141Z,87.75
2022-10-03T02:02:17.873Z,87.45
2022-10-03T02:03:05.752Z,87.87
2022-10-03T02:03:46.937Z,87.39
2022-10-03T02:04:49.896Z,87.78
2022-10-03T02:06:15.949Z,87.57
2022-10-03T02:07:01.599Z,87.67
2022-10-03T02:07:52.527Z,88.21
2022-10-03T02:08:47.019Z,88.52
2022-10-03T02:09:48.423Z,88.56
2022-10-03T02:10:35.657Z,88.25
2022-10-03T02:11:09.791Z,88.06
2022-10-03T02:11:50.227Z,88.52
2022-10-03T02:12:21.489Z,88.15
2022-10-03T02:13:12.960Z,87.84
2022-10-03T02:13:51.763Z,88.31
2022-10-03T02:14:47.103Z,88.16
2022-10-03T02:15:24.053Z,87.92
2022-10-03T02:16:10.185Z,87.89
2022-10-03T02:16:57.260Z,87.65
2022-10-03T02:17:45.292Z,87.50
2022-10-03T02:18:46.207Z,88.00
2022-10-03T02:19:48.840Z,87.80
2022-10-03T02:20:51.801Z,88.35
2022-10-03T02:21:27.450Z,88.35
2022-10-03T02:22:00.572Z,87.88
2022-10-03T02:22:37.846Z,88.18
2022-10-03T02:23:31.591Z,88.09
2022-10-03T02:24:21.718Z,88.27
2022-10-03T02:25:05.996Z,87.96
2022-10-03T02:25:54.153Z,88.73
2022-10-03T02:26:53.852Z,88.39
2022-10-03T02:27:52.376Z,88.32
2022-10-03T02:28:38.668Z,88.09
2022-10-03T02:29:25.143Z,87.57
2022-10-03T02:30:15.239Z,88.34
2022-10-03T02:31:01.822Z,88.17
2022-10-03T02:32:15.316Z,88.19
2022-10-03T02:33:15.000Z,88.10
2022-10-03T02:33:48.818Z,87.82
2022-10-03T02:34:47.819Z,88.06
2022-10-03T02:35:46.999Z,87.99
2022-10-03T02:36:51.023Z,87.80
2022-10-03T02:37:46.727Z,87.30
2022-10-03T02:38:17.971Z,88.03
2022-10-03T02:39:18.620Z,87.54
2022-10-03T02:40:17.561Z,87.93
2022-10-03T02:41:10.280Z,87.90
2022-10-03T02:41:44.640Z,87.61
2022-10-03T02:42:40.492Z,87.18
2022-10-03T02:43:25.511Z,87.68
2022-10-03T02:44:33.614Z,88.18
2022-10-03T02:45:31.482Z,88.35
2022-10-03T02:46:43.871Z,88.41
2022-10-03T02:47:42.135Z,88.09
2022-10-03T02:48:31.687Z,88.36
2022-10-03T02:49:39.511Z,88.31
2022-10-03T02:50:50.073Z,87.78
2022-10-03T02:51:57.863Z,87.85
2022-10-03T02:52:59.432Z,88.08
2022-10-03T02:53:48.280Z,87.52
2022-10-03T02:54:31.531Z,88.15
2022-10-03T02:55:46.685Z,87.46
2022-10-03T02:56:56.376Z,87.38
2022-10-03T02:57:59.171Z,87.82
2022-10-03T02:58:54.567Z,87.83
2022-10-03T02:59:56.867Z,88.51
2022-10-03T03:00:38.793Z,88.32
2022-10-03T03:01:41.789Z,88.33
2022-10-03T03:02:51.208Z,88.83
2022-10-03T03:03:58.852Z,88.19
2022-10-03T03:05:10.425Z,88.50
2022-10-03T03:05:50.436Z,88.46
2022-10-03T03:06:59.220Z,88.57
2022-10-03T03:07:36.967Z,88.23
2022-10-03T03:08:47.193Z,88.11
2022-10-03T03:09:39.435Z,88.46
2022-10-03T03:10:29.495Z,88.15
2022-10-03T03:11:17.060Z,87.65
2022-10-03T03:12:16.100Z,87.81
2022-10-03T03:13:10.453Z,87.99
2022-10-03T03:14:29.107Z,88.05
2022-10-03T03:15:25.424Z,88.21
2022-10-03T03:16:24.047Z,88.01
2022-10-03T03:17:05.825Z,87.99
2022-10-03T03:17:52.530Z,88.19
2022-10-03T03:18:33.000Z,88.03
2022-10-03T03:19:45.562Z,87.52
2022-10-03T03:20:17.276Z,88.24
2022-10-03T03:21:11.484Z,88.18
2022-10-03T03:22:13.630Z,87.68
2022-10-03T03:23:06.851Z,87.81
2022-10-03T03:24:05.716Z,88.29
2022-10-03T03:25:04.084Z,87.59
2022-10-03T03:25:52.707Z,87.83
2022-10-03T03:26:43.587Z,88.22
2022-10-03T03:27:36.556Z,87.98
2022-10-03T03:28:22.999Z,87.90
2022-10-03T03:29:04.232Z,88.17
2022-10-03T03:29:43.115Z,88.14
2022-10-03T03:30:21.587Z,88.10
2022-10-03T03:31:09.719Z,87.53
2022-10-03T03:32:00.381Z,87.74
2022-10-03T03:32:56.874Z,88.23
2022-10-03T03:33:51.404Z,88.30
2022-10-03T03:34:43.399Z,87.63
2022-10-03T03:35:36.375Z,88.19
2022-10-03T03:36:29.176Z,87.81
2022-10-03T03:37:19.761Z,87.96
2022-10-03T03:37:54.052Z,88.35
2022-10-03T03:38:49.880Z,87.67
2022-10-03T03:39:36.410Z,87.99
2022-10-03T03:40:32.584Z,87.96
2022-10-03T03:41:14.103Z,88.00
2022-10-03T03:42:15.868Z,88.27
2022-10-03T03:43:16.023Z,87.81
2022-10-03T03:44:05.637Z,87.86
2022-10-03T03:45:04.221Z,87.52
2022-10-03T03:45:44.657Z,87.74
2022-10-03T03:46:40.854Z,87.77
2022-10-03T03:47:38.744Z,88.14
2022-10-03T03:48:37.678Z,87.67
2022-10-03T03:49:11.955Z,87.87
2022-10-03T03:50:20.120Z,87.44
2022-10-03T03:51:21.798Z,88.04
2022-10-03T03:52:09.753Z,87.74
2022-10-03T03:52:59.131Z,88.08
2022-10-03T03:53:49.146Z,88.28
2022-10-03T03:54:27.302Z,87.80
2022-10-03T03:55:06.124Z,87.53
2022-10-03T03:56:04.995Z,88.19
2022-10-03T03:56:51.289Z,88.22
2022-10-03T03:57:43.928Z,87.82
2022-10-03T03:58:21.449Z,87.51
2022-10-03T03:59:19.223Z,88.00
2022-10-03T04:00:21.059Z,87.99
2022-10-03T04:00:58.274Z,87.91
2022-10-03T04:01:54.314Z,87.97
2022-10-03T04:02:48.476Z,88.20
2022-10-03T04:03:58.330Z,88.18
2022-10-03T04:05:03.690Z,88.23
2022-10-03T04:05:55.980Z,88.02
2022-10-03T04:06:39.407Z,88.30
2022-10-03T04:07:37.724Z,87.96
2022-10-03T04:08:28.776Z,88.04
2022-10-03T04:09:14.308Z,88.34
2022-10-03T04:10:07.157Z,88.31
2022-10-03T04:10:46.977Z,88.28
2022-10-03T04:11:28.308Z,88.53
2022-10-03T04:12:21.875Z,88.01
2022-10-03T04:13:21.983Z,88.08
2022-10-03T04:14:30.436Z,88.28
2022-10-03T04:15:29.389Z,88.50
2022-10-03T04:16:52.038Z,88.25
2022-10-03T04:18:00.615Z,88.38
2022-10-03T04:18:58.935Z,88.04
2022-10-03T04:20:02.102Z,88.21
2022-10-03T04:20:39.148Z,88.08
2022-10-03T04:21:50.383Z,87.57
2022-10-03T04:22:42.147Z,88.08
2022-10-03T04:23:22.920Z,88.25
2022-10-03T04:24:20.803Z,87.77
2022-10-03T04:25:15.853Z,88.07
2022-10-03T04:25:59.252Z,88.27
2022-10-03T04:26:41.339Z,88.32
2022-10-03T04:27:15.464Z,88.33
2022-10-03T04:28:10.576Z,88.02
2022-10-03T04:28:57.229Z,87.98
2022-10-03T04:29:47.091Z,88.10
2022-10-03T04:30:51.646Z,87.98
2022-10-03T04:32:03.213Z,88.14
2022-10-03T04:32:57.092Z,87.94
2022-10-03T04:33:45.529Z,88.28
2022-10-03T04:34:28.208Z,87.78
2022-10-03T04:35:24.404Z,87.77
2022-10-03T04:36:09.046Z,87.88
2022-10-03T04:36:56.827Z,88.07
2022-10-03T04:37:58.350Z,88.06
2022-10-03T04:38:54.523Z,87.76
2022-10-03T04:39:48.967Z,88.43
2022-10-03T04:40:26.009Z,88.32
2022-10-03T04:41:21.988Z,88.08
2022-10-03T04:42:13.632Z,88.31
2022-10-03T04:43:24.500Z,88.32
2022-10-03T04:44:15.491Z,88.29
2022-10-03T04:45:02.649Z,88.19
2022-10-03T04:45:46.150Z,88.04
2022-10-03T04:46:30.515Z,88.07
2022-10-03T04:47:28.158Z,88.06
2022-10-03T04:48:10.052Z,88.59
2022-10-03T04:48:51.681Z,88.25
2022-10-03T04:49:42.178Z,88.01
2022-10-03T04:50:34.245Z,88.52
2022-10-03T04:51:41.588Z,88.41
2022-10-03T04:52:27.389Z,88.46
2022-10-03T04:53:23.546Z,88.33
2022-10-03T04:54:15.298Z,88.58
2022-10-03T04:54:56.151Z,88.32
2022-10-03T04:55:39.416Z,88.59
2022-10-03T04:56:31.692Z,89.01
2022-10-03T04:57:31.517Z,88.76
2022-10-03T04:58:50.929Z,88.59
2022-10-03T04:59:53.579Z,88.73
2022-10-03T05:00:54.871Z,88.71
2022-10-03T05:01:52.268Z,89.16
2022-10-03T05:02:52.144Z,88.50
2022-10-03T05:03:32.899Z,88.55
2022-10-03T05:04:15.843Z,88.93
2022-10-03T05:05:17.675Z,88.74
2022-10-03T05:06:08.205Z,88.62
2022-10-03T05:07:16.330Z,88.75
2022-10-03T05:08:06.130Z,88.18
2022-10-03T05:09:15.086Z,87.98
2022-10-03T05:09:47.079Z,88.13
2022-10-03T05:11:01.662Z,88.26
2022-10-03T05:11:49.642Z,87.95
2022-10-03T05:12:45.439Z,88.55
2022-10-03T05:13:42.301Z,88.40
2022-10-03T05:14:38.108Z,88.29
2022-10-03T05:15:27.487Z,88.59
2022-10-03T05:16:19.244Z,88.46
2022-10-03T05:17:12.611Z,88.42
2022-10-03T05:18:10.556Z,88.68
2022-10-03T05:19:09.904Z,88.44
2022-10-03T05:20:01.571Z,88.96
2022-10-03T05:20:44.595Z,88.66
2022-10-03T05:21:45.280Z,88.86
2022-10-03T05:22:25.069Z,89.01
2022-10-03T05:23:31.180Z,88.61
2022-10-03T05:24:19.354Z,88.52
2022-10-03T05:25:01.925Z,88.59
2022-10-03T05:25:53.788Z,88.73
2022-10-03T05:26:44.898Z,88.40
2022-10-03T05:27:22.852Z,88.40
2022-10-03T05:28:12.473Z,88.68
2022-10-03T05:28:50.300Z,88.72
2022-10-03T05:29:41.235Z,88.65
2022-10-03T05:30:53.275Z,88.59
2022-10-03T05:32:05.679Z,88.58
2022-10-03T05:32:53.092Z,88.43
2022-10-03T05:33:45.900Z,88.60
2022-10-03T05:35:08.095Z,88.43
2022-10-03T05:35:42.591Z,88.59
2022-10-03T05:36:50.424Z,88.62
2022-10-03T05:37:49.888Z,88.89
2022-10-03T05:38:51.803Z,88.32
2022-10-03T05:39:45.611Z,88.68
2022-10-03T05:40:24.956Z,88.87
2022-10-03T05:41:12.193Z,88.82
2022-10-03T05:42:21.483Z,88.32
2022-10-03T05:43:02.054Z,88.77
2022-10-03T05:43:42.982Z,88.92
2022-10-03T05:44:26.717Z,89.18
2022-10-03T05:45:06.204Z,88.95
2022-10-03T05:45:58.540Z,89.27
2022-10-03T05:46:44.940Z,89.04
2022-10-03T05:47:45.463Z,88.86
2022-10-03T05:48:48.732Z,89.06
2022-10-03T05:49:47.520Z,89.61
2022-10-03T05:50:57.702Z,89.18
2022-10-03T05:51:50.256Z,89.42
2022-10-03T05:52:51.148Z,89.32
2022-10-03T05:53:34.314Z,89.11
2022-10-03T05:54:27.123Z,89.01
2022-10-03T05:55:24.049Z,89.31
2022-10-03T05:56:13.672Z,89.17
2022-10-03T05:57:05.594Z,89.09
2022-10-03T05:57:55.477Z,88.87
2022-10-03T05:59:05.452Z,88.61
2022-10-03T05:59:37.275Z,88.94
2022-10-03T06:00:09.008Z,88.91
2022-10-03T06:01:02.483Z,89.20
2022-10-03T06:01:59.192Z,89.04
2022-10-03T06:02:51.642Z,89.30
2022-10-03T06:03:45.836Z,88.97
2022-10-03T06:04:46.271Z,89.58
2022-10-03T06:05:27.217Z,89.42
2022-10-03T06:06:20.579Z,89.48
2022-10-03T06:07:14.104Z,89.55
2022-10-03T06:08:35.047Z,89.32
2022-10-03T06:09:25.160Z,89.13
2022-10-03T06:10:16.122Z,88.92
2022-10-03T06:11:23.343Z,89.01
2022-10-03T06:12:07.313Z,89.31
2022-10-03T06:12:49.134Z,88.98
2022-10-03T06:13:41.206Z,89.34
2022-10-03T06:14:34.756Z,88.89
2022-10-03T06:15:21.924Z,89.18
2022-10-03T06:15:57.250Z,89.05
2022-10-03T06:17:05.743Z,89.27
2022-10-03T06:18:16.428Z,89.43
2022-10-03T06:19:15.479Z,89.58
2022-10-03T06:19:51.267Z,89.37
2022-10-03T06:21:12.680Z,89.33
2022-10-03T06:22:10.244Z,89.38
2022-10-03T06:23:12.845Z,89.35
2022-10-03T06:24:11.683Z,89.45
2022-10-03T06:25:01.617Z,89.33
2022-10-03T06:26:00.687Z,89.78
2022-10-03T06:26:58.055Z,89.73
2022-10-03T06:27:50.116Z,89.83
2022-10-03T06:28:27.198Z,90.35
2022-10-03T06:29:20.063Z,90.25
2022-10-03T06:30:12.201Z,89.81
2022-10-03T06:30:58.731Z,89.87
2022-10-03T06:31:32.191Z,89.87
2022-10-03T06:32:15.558Z,90.41
2022-10-03T06:33:30.635Z,89.48
2022-10-03T06:34:23.592Z,89.77
2022-10-03T06:35:14.429Z,89.65
2022-10-03T06:36:19.578Z,90.13
2022-10-03T06:37:01.036Z,89.60
2022-10-03T06:38:04.653Z,90.37
2022-10-03T06:38:37.000Z,90.11
2022-10-03T06:39:22.845Z,90.22
2022-10-03T06:40:21.832Z,90.12
2022-10-03T06:41:54.953Z,90.16
2022-10-03T06:43:00.095Z,90.29
2022-10-03T06:44:05.263Z,90.27
2022-10-03T06:44:50.732Z,90.33
2022-10-03T06:45:31.004Z,90.17
2022-10-03T06:46:47.164Z,90.41
2022-10-03T06:47:42.675Z,90.36
2022-10-03T06:48:41.781Z,90.96
2022-10-03T06:49:28.266Z,90.77
2022-10-03T06:50:27.217Z,90.99
2022-10-03T06:51:30.772Z,91.06
2022-10-03T06:52:35.782Z,90.92
2022-10-03T06:53:28.183Z,91.13
2022-10-03T06:54:30.411Z,91.56
2022-10-03T06:55:37.763Z,92.22
2022-10-03T06:56:27.637Z,92.40
2022-10-03T06:57:49.119Z,92.96
2022-10-03T06:58:44.770Z,92.99
2022-10-03T06:59:44.532Z,94.00
2022-10-03T07:00:24.824Z,94.36
2022-10-03T07:01:11.512Z,94.50
2022-10-03T07:02:04.552Z,95.06
2022-10-03T07:03:07.153Z,94.69
2022-10-03T07:04:03.599Z,94.87
2022-10-03T07:05:11.596Z,94.95
2022-10-03T07:06:20.631Z,94.54
2022-10-03T07:07:27.129Z,94.47
2022-10-03T07:08:23.316Z,94.29
2022-10-03T07:09:17.287Z,94.80
2022-10-03T07:10:09.348Z,94.78
2022-10-03T07:11:05.259Z,95.04
2022-10-03T07:12:05.365Z,95.61
2022-10-03T07:12:44.840Z,95.63
2022-10-03T07:13:50.671Z,95.35
2022-10-03T07:15:01.311Z,96.28
2022-10-03T07:16:25.376Z,96.57
2022-10-03T07:17:20.886Z,96.55
2022-10-03T07:18:01.090Z,96.78
2022-10-03T07:18:54.555Z,96.66
2022-10-03T07:19:46.982Z,97.68
2022-10-03T07:20:51.856Z,96.98
2022-10-03T07:21:31.186Z,97.01
2022-10-03T07:22:23.456Z,97.05
2022-10-03T07:23:04.743Z,97.09
2022-10-03T07:23:52.395Z,97.49
2022-10-03T07:24:51.652Z,97.01
2022-10-03T07:25:25.760Z,97.03
2022-10-03T07:26:35.409Z,97.48
2022-10-03T07:27:34.663Z,97.68
2022-10-03T07:28:28.704Z,97.52
2022-10-03T07:29:09.064Z,97.72
2022-10-03T07:30:09.542Z,98.24
2022-10-03T07:30:46.725Z,98.67
2022-10-03T07:31:34.918Z,98.34
2022-10-03T07:32:23.982Z,98.28
2022-10-03T07:33:07.019Z,98.24
2022-10-03T07:34:09.417Z,98.25
2022-10-03T07:35:05.279Z,98.54
2022-10-03T07:36:01.441Z,98.09
2022-10-03T07:37:03.296Z,98.53
2022-10-03T07:38:37.878Z,98.31
2022-10-03T07:39:49.618Z,98.45
2022-10-03T07:40:20.935Z,98.61
2022-10-03T07:41:15.941Z,98.54
2022-10-03T07:42:21.169Z,98.97
2022-10-03T07:43:11.256Z,99.14
2022-10-03T07:44:04.506Z,99.14
2022-10-03T07:45:02.869Z,99.49
2022-10-03T07:45:41.050Z,99.38
2022-10-03T07:46:46.543Z,99.35
2022-10-03T07:47:42.299Z,99.46
2022-10-03T07:48:25.419Z,99.31
2022-10-03T07:49:18.515Z,99.20
2022-10-03T07:50:03.532Z,98.64
2022-10-03T07:51:08.481Z,98.46
2022-10-03T07:51:49.043Z,98.72
2022-10-03T07:52:42.723Z,98.56
2022-10-03T07:53:21.044Z,98.46
2022-10-03T07:54:10.280Z,97.98
2022-10-03T07:55:00.155Z,97.81
2022-10-03T07:55:40.355Z,97.62
2022-10-03T07:56:23.573Z,97.55
2022-10-03T07:57:07.628Z,98.21
2022-10-03T07:57:50.727Z,98.11
2022-10-03T07:58:31.274Z,98.15
2022-10-03T07:59:40.447Z,97.99
2022-10-03T08:00:17.907Z,97.48
2022-10-03T08:01:05.396Z,97.82
2022-10-03T08:02:21.481Z,97.43
2022-10-03T08:03:41.530Z,97.30
2022-10-03T08:04:45.998Z,97.22
2022-10-03T08:05:37.734Z,97.37
2022-10-03T08:06:15.672Z,97.54
2022-10-03T08:07:23.915Z,97.09
2022-10-03T08:08:04.399Z,97.29
2022-10-03T08:09:17.122Z,97.17
2022-10-03T08:10:13.618Z,97.58
2022-10-03T08:11:15.020Z,97.41
2022-10-03T08:12:11.239Z,96.77
2022-10-03T08:12:57.984Z,97.14
2022-10-03T08:13:49.468Z,96.82
2022-10-03T08:15:06.943Z,96.93
2022-10-03T08:15:59.740Z,96.24
2022-10-03T08:17:00.546Z,96.50
2022-10-03T08:17:53.603Z,96.84
2022-10-03T08:18:36.676Z,97.53
2022-10-03T08:19:23.288Z,97.02
2022-10-03T08:20:31.302Z,96.75
2022-10-03T08:21:09.963Z,97.18
2022-10-03T08:22:06.883Z,96.67
2022-10-03T08:23:24.506Z,96.63
2022-10-03T08:24:16.783Z,95.83
2022-10-03T08:25:02.945Z,96.36
2022-10-03T08:25:52.505Z,96.89
2022-10-03T08:27:04.331Z,96.97
2022-10-03T08:28:06.228Z,97.14
2022-10-03T08:28:41.219Z,97.11
2022-10-03T08:29:30.687Z,96.61
2022-10-03T08:30:07.980Z,97.09
2022-10-03T08:31:02.159Z,96.52
2022-10-03T08:32:02.332Z,96.21
2022-10-03T08:32:55.772Z,96.74
2022-10-03T08:33:51.691Z,96.51
2022-10-03T08:34:47.848Z,96.49
2022-10-03T08:35:35.267Z,96.57
2022-10-03T08:36:26.900Z,97.23
2022-10-03T08:37:23.215Z,97.01
2022-10-03T08:38:16.336Z,97.24
2022-10-03T08:39:01.828Z,97.12
2022-10-03T08:39:51.409Z,96.19
2022-10-03T08:41:07.646Z,96.83
2022-10-03T08:42:03.885Z,96.80
2022-10-03T08:42:53.847Z,96.54
2022-10-03T08:44:02.380Z,95.79
2022-10-03T08:45:04.258Z,95.96
2022-10-03T08:46:05.500Z,95.04
2022-10-03T08:46:36.824Z,94.39
2022-10-03T08:47:32.360Z,94.66
2022-10-03T08:48:46.116Z,94.76
2022-10-03T08:49:51.646Z,95.96
2022-10-03T08:50:50.007Z,95.42
2022-10-03T08:51:47.804Z,94.61
2022-10-03T08:52:44.658Z,94.25
2022-10-03T08:53:28.084Z,93.89
2022-10-03T08:54:02.667Z,93.41
2022-10-03T08:54:48.611Z,92.94
2022-10-03T08:55:47.752Z,92.25
2022-10-03T08:56:46.411Z,92.75
2022-10-03T08:57:24.578Z,93.23
2022-10-03T08:58:01.887Z,92.69
2022-10-03T08:59:03.281Z,92.01
2022-10-03T09:00:23.516Z,92.26
2022-10-03T09:01:22.666Z,92.87
2022-10-03T09:02:22.304Z,91.46
2022-10-03T09:04:05.057Z,91.14
2022-10-03T09:05:30.366Z,89.27
2022-10-03T09:06:04.451Z,89.25
2022-10-03T09:07:16.418Z,89.07
2022-10-03T09:08:19.899Z,88.69
2022-10-03T09:09:22.153Z,88.42
2022-10-03T09:10:30.411Z,89.25
2022-10-03T09:11:20.126Z,89.01
2022-10-03T09:12:36.657Z,89.30
2022-10-03T09:13:34.228Z,89.61
2022-10-03T09:14:43.903Z,89.24
2022-10-03T09:15:48.523Z,89.91
2022-10-03T09:16:22.802Z,89.70
2022-10-03T09:17:27.449Z,89.96
2022-10-03T09:18:08.012Z,89.41
2022-10-03T09:18:51.168Z,89.30
2022-10-03T09:19:44.927Z,89.09
2022-10-03T09:20:25.187Z,88.81
2022-10-03T09:21:35.007Z,87.65
2022-10-03T09:22:46.089Z,88.07
2022-10-03T09:23:42.655Z,87.00
2022-10-03T09:24:41.920Z,88.59
2022-10-03T09:25:38.990Z,88.03
2022-10-03T09:26:31.472Z,88.54
2022-10-03T09:27:32.248Z,87.75
2022-10-03T09:28:40.661Z,87.86
2022-10-03T09:29:41.639Z,88.54
2022-10-03T09:30:55.216Z,87.91
2022-10-03T09:31:47.418Z,88.06
2022-10-03T09:32:27.885Z,87.16
2022-10-03T09:33:32.559Z,86.83
2022-10-03T09:34:31.088Z,87.54
2022-10-03T09:35:23.317Z,87.17
2022-10-03T09:36:09.590Z,87.06
2022-10-03T09:37:13.880Z,86.57
2022-10-03T09:38:22.632Z,86.49
2022-10-03T09:39:12.563Z,85.52
2022-10-03T09:40:13.287Z,85.93
2022-10-03T09:41:13.246Z,85.86
2022-10-03T09:42:09.075Z,85.37
2022-10-03T09:43:01.882Z,84.78
2022-10-03T09:43:54.432Z,84.81
2022-10-03T09:45:04.325Z,84.67
2022-10-03T09:45:56.714Z,85.49
2022-10-03T09:47:23.793Z,85.82
2022-10-03T09:48:11.379Z,84.91
2022-10-03T09:49:12.952Z,84.96
2022-10-03T09:50:03.839Z,84.19
2022-10-03T09:50:54.005Z,84.45
2022-10-03T09:51:51.468Z,84.80
2022-10-03T09:53:02.378Z,84.66
2022-10-03T09:53:59.210Z,83.40
2022-10-03T09:55:02.072Z,83.73
2022-10-03T09:56:08.940Z,83.86
2022-10-03T09:57:06.474Z,82.67
2022-10-03T09:58:08.871Z,82.77
2022-10-03T09:59:18.892Z,83.21
2022-10-03T09:59:59.634Z,82.52
2022-10-03T10:00:55.614Z,83.25
2022-10-03T10:01:34.205Z,82.60
2022-10-03T10:02:25.360Z,82.32
2022-10-03T10:03:48.758Z,82.33
2022-10-03T10:04:53.154Z,82.83
2022-10-03T10:06:08.289Z,82.01
2022-10-03T10:06:54.609Z,81.47
2022-10-03T10:07:37.213Z,80.94
2022-10-03T10:08:32.939Z,81.15
2022-10-03T10:09:38.520Z,81.96
2022-10-03T10:10:43.119Z,81.39
2022-10-03T10:11:44.659Z,82.59
2022-10-03T10:12:46.654Z,82.37
2022-10-03T10:14:03.229Z,81.99
2022-10-03T10:14:53.953Z,82.20
2022-10-03T10:15:43.026Z,81.88
2022-10-03T10:16:47.885Z,81.49
2022-10-03T10:17:49.358Z,80.37
2022-10-03T10:18:40.822Z,81.28
2022-10-03T10:19:22.312Z,80.76
2022-10-03T10:20:01.627Z,79.31
2022-10-03T10:21:07.971Z,79.88
2022-10-03T10:21:55.579Z,80.10
2022-10-03T10:22:51.059Z,79.07
2022-10-03T10:23:37.764Z,78.68
2022-10-03T10:24:56.747Z,78.72
2022-10-03T10:25:42.243Z,78.01
2022-10-03T10:26:50.548Z,78.44
2022-10-03T10:27:56.207Z,78.43
2022-10-03T10:29:00.684Z,78.17
2022-10-03T10:29:46.923Z,77.58
2022-10-03T10:30:50.823Z,77.61
2022-10-03T10:31:38.950Z,77.52
2022-10-03T10:32:43.665Z,77.96
2022-10-03T10:34:02.259Z,77.58
2022-10-03T10:35:04.603Z,77.20
2022-10-03T10:36:09.144Z,78.48
2022-10-03T10:37:19.149Z,77.51
2022-10-03T10:37:55.921Z,77.20
2022-10-03T10:38:39.836Z,78.02
2022-10-03T10:39:27.995Z,77.90
2022-10-03T10:40:14.676Z,77.81
2022-10-03T10:41:25.853Z,77.94
2022-10-03T10:42:18.379Z,77.73
2022-10-03T10:43:29.228Z,77.27
2022-10-03T10:44:06.585Z,76.71
2022-10-03T10:45:05.285Z,76.48
2022-10-03T10:45:56.104Z,76.96
2022-10-03T10:46:45.956Z,76.97
2022-10-03T10:48:04.175Z,76.61
2022-10-03T10:49:20.470Z,75.97
2022-10-03T10:50:23.422Z,74.54
2022-10-03T10:51:22.264Z,74.62
2022-10-03T10:52:26.768Z,73.50
2022-10-03T10:53:52.204Z,74.97
2022-10-03T10:54:44.994Z,74.46
2022-10-03T10:55:46.166Z,74.67
2022-10-03T10:56:36.848Z,74.50
2022-10-03T10:57:24.403Z,73.87
2022-10-03T10:58:40.641Z,73.87
2022-10-03T10:59:49.486Z,74.20
2022-10-03T11:00:30.879Z,73.61
2022-10-03T11:01:14.373Z,74.72
2022-10-03T11:02:18.487Z,74.58
2022-10-03T11:03:36.768Z,73.60
2022-10-03T11:04:43.529Z,73.87
2022-10-03T11:05:41.232Z,73.35
2022-10-03T11:06:41.942Z,73.80
2022-10-03T11:07:53.862Z,73.33
2022-10-03T11:09:04.315Z,74.41
2022-10-03T11:09:49.006Z,74.88
2022-10-03T11:10:52.264Z,74.87
2022-10-03T11:12:07.030Z,74.72
2022-10-03T11:12:44.251Z,73.54
2022-10-03T11:13:37.611Z,74.54
2022-10-03T11:14:48.264Z,75.53
2022-10-03T11:15:50.545Z,75.40
2022-10-03T11:16:41.011Z,75.32
2022-10-03T11:17:50.252Z,74.72
2022-10-03T11:18:47.641Z,74.98
2022-10-03T11:19:41.775Z,74.35
2022-10-03T11:20:13.103Z,73.62
2022-10-03T11:20:59.593Z,73.45
2022-10-03T11:21:39.875Z,74.08
2022-10-03T11:22:40.219Z,73.83
2022-10-03T11:23:30.318Z,73.56
2022-10-03T11:24:20.356Z,73.93
2022-10-03T11:25:28.785Z,73.32
2022-10-03T11:26:08.967Z,74.22
2022-10-03T11:27:12.704Z,73.94
2022-10-03T11:28:18.860Z,73.89
2022-10-03T11:29:15.186Z,73.42
2022-10-03T11:30:14.153Z,74.14
2022-10-03T11:31:23.807Z,73.65
2022-10-03T11:32:24.218Z,73.68
2022-10-03T11:33:10.507Z,73.55
2022-10-03T11:34:05.916Z,73.46
2022-10-03T11:34:43.120Z,74.10
2022-10-03T11:35:29.689Z,73.63
2022-10-03T11:36:47.917Z,73.03
2022-10-03T11:37:32.513Z,73.24
2022-10-03T11:38:16.705Z,72.52
2022-10-03T11:39:15.505Z,72.04
2022-10-03T11:40:10.352Z,72.97